KGCY/GCY METAR and TAF weather

Enter ICAO airport designator
Station Type Date Time Source
KGCY METAR 2019/06/27 04:40 UTC NOAA

KGCY 270440Z AUTO 21004KT 10SM CLR 19/17 A3023 RMK A01


Station Type Date Time Source
KGCY Decoded METAR 2019/06/27 04:40 UTC NOAA

Station name not available
Jun 27, 2019 - 12:40 AM EDT / 2019.06.27 0440 UTC
Wind: from the SSW (210 degrees) at 5 MPH (4 KT):0
Visibility: 10 mile(s):0
Sky conditions: clear
Temperature: 66 F (19 C)
Dew Point: 62 F (17 C)
Relative Humidity: 88%
Pressure (altimeter): 30.23 in. Hg (1023 hPa)
ob: KGCY 270440Z AUTO 21004KT 10SM CLR 19/17 A3023 RMK A01
cycle: 4

Station Type Date Time Source
KGCY TAF UTC NOAA

Error!

Example: see airport list